createdAt,value
2023-02-27T00:00:48.262Z,7.03
2023-02-27T00:03:18.958Z,7.40
2023-02-27T00:05:45.629Z,6.90
2023-02-27T00:08:12.182Z,7.47
2023-02-27T00:10:38.724Z,6.97
2023-02-27T00:13:05.569Z,6.93
2023-02-27T00:15:32.280Z,6.45
2023-02-27T00:17:59.861Z,7.22
2023-02-27T00:20:26.942Z,7.20
2023-02-27T00:22:56.447Z,7.35
2023-02-27T00:25:22.992Z,7.25
2023-02-27T00:27:49.436Z,8.15
2023-02-27T00:30:16.461Z,8.57
2023-02-27T00:32:43.860Z,7.72
2023-02-27T00:35:12.562Z,8.25
2023-02-27T00:37:39.929Z,7.65
2023-02-27T00:40:11.249Z,8.85
2023-02-27T00:42:37.831Z,8.73
2023-02-27T00:45:08.774Z,8.75
2023-02-27T00:47:35.759Z,8.33
2023-02-27T00:50:02.388Z,8.13
2023-02-27T00:52:35.689Z,8.30
2023-02-27T00:55:02.424Z,7.95
2023-02-27T00:57:28.999Z,6.78
2023-02-27T00:59:55.475Z,8.50
2023-02-27T01:02:22.362Z,9.10
2023-02-27T01:04:49.343Z,8.63
2023-02-27T01:07:15.946Z,9.65
2023-02-27T01:09:42.765Z,8.75
2023-02-27T01:12:13.733Z,9.80
2023-02-27T01:14:40.241Z,9.10
2023-02-27T01:17:10.421Z,8.20
2023-02-27T01:19:36.887Z,8.32
2023-02-27T01:22:03.374Z,7.80
2023-02-27T01:24:29.876Z,8.75
2023-02-27T01:26:56.376Z,8.07
2023-02-27T01:29:22.872Z,8.73
2023-02-27T01:31:50.225Z,8.48
2023-02-27T01:34:17.538Z,7.55
2023-02-27T01:36:47.339Z,7.80
2023-02-27T01:39:19.829Z,7.38
2023-02-27T01:41:46.458Z,7.18
2023-02-27T01:44:14.711Z,6.70
2023-02-27T01:46:42.258Z,6.07
2023-02-27T01:49:15.053Z,7.15
2023-02-27T01:52:05.892Z,7.57
2023-02-27T01:54:43.536Z,6.75
2023-02-27T01:57:13.253Z,6.25
2023-02-27T01:59:42.516Z,5.50
2023-02-27T02:02:17.718Z,5.60
2023-02-27T02:04:44.363Z,5.45
2023-02-27T02:07:15.517Z,5.10
2023-02-27T02:09:45.388Z,5.07
2023-02-27T02:12:14.570Z,4.90
2023-02-27T02:14:41.086Z,5.40
2023-02-27T02:17:35.421Z,4.95
2023-02-27T02:20:07.691Z,5.20
2023-02-27T02:22:59.032Z,5.18
2023-02-27T02:25:34.439Z,5.43
2023-02-27T02:28:22.880Z,4.95
2023-02-27T02:31:15.321Z,4.70
2023-02-27T02:33:50.557Z,3.47
2023-02-27T02:36:26.919Z,3.47
2023-02-27T02:39:12.173Z,3.70
2023-02-27T02:41:45.863Z,3.47
2023-02-27T02:44:28.905Z,3.15
2023-02-27T02:47:17.080Z,2.33
2023-02-27T02:50:11.424Z,2.60
2023-02-27T02:53:05.709Z,2.50
2023-02-27T02:56:05.652Z,2.70
2023-02-27T02:58:42.446Z,2.10
2023-02-27T03:01:15.887Z,2.40
2023-02-27T03:03:56.872Z,2.42
2023-02-27T03:06:30.770Z,2.28
2023-02-27T03:09:15.116Z,2.30
2023-02-27T03:11:45.633Z,2.60
2023-02-27T03:14:21.105Z,2.22
2023-02-27T03:16:53.299Z,2.55
2023-02-27T03:19:26.350Z,2.17
2023-02-27T03:21:59.172Z,2.30
2023-02-27T03:24:35.831Z,2.40
2023-02-27T03:27:04.385Z,1.90
2023-02-27T03:29:39.971Z,2.10
2023-02-27T03:32:17.674Z,2.20
2023-02-27T03:34:45.294Z,1.73
2023-02-27T03:37:20.775Z,1.80
2023-02-27T03:39:52.954Z,1.90
2023-02-27T03:42:22.461Z,2.05
2023-02-27T03:45:05.496Z,2.00
2023-02-27T03:47:33.035Z,2.20
2023-02-27T03:49:59.590Z,1.98
2023-02-27T03:52:28.707Z,1.90
2023-02-27T03:55:10.425Z,2.00
2023-02-27T03:57:38.306Z,2.60
2023-02-27T04:00:11.734Z,3.03
2023-02-27T04:02:39.796Z,3.10
2023-02-27T04:05:06.694Z,2.92
2023-02-27T04:07:40.541Z,2.65
2023-02-27T04:10:15.628Z,3.15
2023-02-27T04:13:01.059Z,2.80
2023-02-27T04:15:36.295Z,3.35
2023-02-27T04:18:25.084Z,2.90
2023-02-27T04:21:17.521Z,2.83
2023-02-27T04:23:54.906Z,2.70
2023-02-27T04:26:33.235Z,2.53
2023-02-27T04:29:07.574Z,2.88
2023-02-27T04:31:48.096Z,2.58
2023-02-27T04:34:31.656Z,2.40
2023-02-27T04:37:06.209Z,2.35
2023-02-27T04:39:39.854Z,2.55
2023-02-27T04:42:12.963Z,2.85
2023-02-27T04:44:41.241Z,2.95
2023-02-27T04:47:10.707Z,2.80
2023-02-27T04:49:58.066Z,3.05
2023-02-27T04:52:44.649Z,3.10
2023-02-27T04:55:11.211Z,2.75
2023-02-27T04:57:42.968Z,2.85
2023-02-27T05:02:43.830Z,3.65
2023-02-27T05:07:49.434Z,2.72
2023-02-27T05:10:26.822Z,2.90
2023-02-27T05:12:58.932Z,2.85
2023-02-27T05:15:33.703Z,2.75
2023-02-27T05:18:04.367Z,3.53
2023-02-27T05:20:54.450Z,2.75
2023-02-27T05:23:30.393Z,2.92
2023-02-27T05:26:19.887Z,3.25
2023-02-27T05:29:01.960Z,3.03
2023-02-27T05:31:38.906Z,3.42
2023-02-27T05:34:16.791Z,2.90
2023-02-27T05:36:53.769Z,3.30
2023-02-27T05:39:24.168Z,2.55
2023-02-27T05:41:58.711Z,2.80
2023-02-27T05:44:33.472Z,3.00
2023-02-27T05:47:04.607Z,2.72
2023-02-27T05:49:42.669Z,3.13
2023-02-27T05:52:13.334Z,2.70
2023-02-27T05:54:51.813Z,2.70
2023-02-27T05:57:24.527Z,3.03
2023-02-27T05:59:57.403Z,3.15
2023-02-27T06:02:24.245Z,3.10
2023-02-27T06:04:51.035Z,3.05
2023-02-27T06:07:18.425Z,3.60
2023-02-27T06:09:45.737Z,3.20
2023-02-27T06:12:12.900Z,3.05
2023-02-27T06:14:39.354Z,3.58
2023-02-27T06:17:05.925Z,4.15
2023-02-27T06:19:32.379Z,3.80
2023-02-27T06:21:58.860Z,3.83
2023-02-27T06:24:26.723Z,3.75
2023-02-27T06:26:53.472Z,4.10
2023-02-27T06:29:20.037Z,4.22
2023-02-27T06:31:46.519Z,4.90
2023-02-27T06:34:16.574Z,4.65
2023-02-27T06:36:43.087Z,4.85
2023-02-27T06:39:11.354Z,4.65
2023-02-27T06:41:37.828Z,4.85
2023-02-27T06:44:04.291Z,5.07
2023-02-27T06:46:31.072Z,5.10
2023-02-27T06:48:57.710Z,5.93
2023-02-27T06:51:24.194Z,6.45
2023-02-27T06:53:50.684Z,6.60
2023-02-27T06:56:17.149Z,6.30
2023-02-27T06:58:43.617Z,5.93
2023-02-27T07:01:13.516Z,5.85
2023-02-27T07:03:40.174Z,5.38
2023-02-27T07:06:06.738Z,6.85
2023-02-27T07:08:33.329Z,6.40
2023-02-27T07:10:59.815Z,6.85
2023-02-27T07:13:26.369Z,6.53
2023-02-27T07:15:52.864Z,6.72
2023-02-27T07:18:20.171Z,6.00
2023-02-27T07:20:51.180Z,5.63
2023-02-27T07:23:18.228Z,5.60
2023-02-27T07:25:46.997Z,5.38
2023-02-27T07:28:13.809Z,6.07
2023-02-27T07:30:41.406Z,5.65
2023-02-27T07:33:08.228Z,4.85
2023-02-27T07:35:34.927Z,5.47
2023-02-27T07:38:01.664Z,4.65
2023-02-27T07:40:28.257Z,4.50
2023-02-27T07:42:54.904Z,4.35
2023-02-27T07:45:22.414Z,4.72
2023-02-27T07:47:49.477Z,4.75
2023-02-27T07:50:16.335Z,4.50
2023-02-27T07:52:43.995Z,3.90
2023-02-27T07:55:12.487Z,5.15
2023-02-27T07:57:39.263Z,5.10
2023-02-27T08:00:06.944Z,6.10
2023-02-27T08:02:33.782Z,5.30
2023-02-27T08:05:00.268Z,5.30
2023-02-27T08:07:26.737Z,6.18
2023-02-27T08:09:53.214Z,5.60
2023-02-27T08:12:19.890Z,6.18
2023-02-27T08:14:46.367Z,5.63
2023-02-27T08:17:12.817Z,5.50
2023-02-27T08:19:39.505Z,5.30
2023-02-27T08:22:05.983Z,5.85
2023-02-27T08:24:32.878Z,5.43
2023-02-27T08:26:59.486Z,5.28
2023-02-27T08:29:26.960Z,5.97
2023-02-27T08:31:53.655Z,5.80
2023-02-27T08:34:20.212Z,6.32
2023-02-27T08:36:46.768Z,6.00
2023-02-27T08:39:14.399Z,6.05
2023-02-27T08:41:40.914Z,6.45
2023-02-27T08:44:07.353Z,6.93
2023-02-27T08:46:33.944Z,7.90
2023-02-27T08:49:00.403Z,9.57
2023-02-27T08:51:27.238Z,9.48
2023-02-27T08:53:58.717Z,8.70
2023-02-27T08:56:27.884Z,9.55
2023-02-27T08:58:55.126Z,8.40
2023-02-27T09:01:28.431Z,8.20
2023-02-27T09:03:55.564Z,8.57
2023-02-27T09:06:23.240Z,8.18
2023-02-27T09:08:50.635Z,6.50
2023-02-27T09:11:17.358Z,6.80
2023-02-27T09:13:43.821Z,6.97
2023-02-27T09:16:10.439Z,6.70
2023-02-27T09:18:36.890Z,6.95
2023-02-27T09:21:03.670Z,7.03
2023-02-27T09:23:30.267Z,6.40
2023-02-27T09:25:56.753Z,5.72
2023-02-27T09:28:23.238Z,6.53
2023-02-27T09:30:49.795Z,6.65
2023-02-27T09:33:16.378Z,6.63
2023-02-27T09:35:42.868Z,7.05
2023-02-27T09:38:09.401Z,6.90
2023-02-27T09:40:41.720Z,5.45
2023-02-27T09:43:15.604Z,5.32
2023-02-27T09:45:42.982Z,5.55
2023-02-27T09:48:24.441Z,4.53
2023-02-27T09:50:52.636Z,3.63
2023-02-27T09:53:31.122Z,4.20
2023-02-27T09:56:07.042Z,4.40
2023-02-27T09:58:51.384Z,4.68
2023-02-27T10:01:30.936Z,4.20
2023-02-27T10:04:26.345Z,4.75
2023-02-27T10:07:39.297Z,5.35
2023-02-27T10:10:35.123Z,5.15
2023-02-27T10:13:19.980Z,5.45
2023-02-27T10:15:49.757Z,4.45
2023-02-27T10:18:28.264Z,4.40
2023-02-27T10:21:18.613Z,3.85
2023-02-27T10:23:51.355Z,4.13
2023-02-27T10:26:27.539Z,3.60
2023-02-27T10:28:54.242Z,4.00
2023-02-27T10:31:25.890Z,4.55
2023-02-27T10:36:33.077Z,4.55
2023-02-27T10:39:16.642Z,3.08
2023-02-27T10:41:44.318Z,2.60
2023-02-27T10:44:16.361Z,2.90
2023-02-27T10:46:43.146Z,2.42
2023-02-27T10:49:19.399Z,2.38
2023-02-27T10:51:47.749Z,1.92
2023-02-27T10:54:25.461Z,2.33
2023-02-27T10:56:58.140Z,2.45
2023-02-27T10:59:33.719Z,2.47
2023-02-27T11:02:26.587Z,2.70
2023-02-27T11:04:55.502Z,2.72
2023-02-27T11:07:50.780Z,3.20
2023-02-27T11:10:21.217Z,2.53
2023-02-27T11:13:23.312Z,2.65
2023-02-27T11:16:10.600Z,2.35
2023-02-27T11:18:39.837Z,2.80
2023-02-27T11:21:20.961Z,2.42
2023-02-27T11:24:01.958Z,2.83
2023-02-27T11:26:40.274Z,2.60
2023-02-27T11:29:18.245Z,2.70
2023-02-27T11:32:04.956Z,2.78
2023-02-27T11:34:38.945Z,3.22
2023-02-27T11:37:28.354Z,3.65
2023-02-27T11:40:16.539Z,2.90
2023-02-27T11:42:50.824Z,3.22
2023-02-27T11:46:11.882Z,1.95
2023-02-27T11:48:19.661Z,3.25
2023-02-27T11:50:56.830Z,3.38
2023-02-27T11:53:53.182Z,2.90
2023-02-27T11:56:28.236Z,3.47
2023-02-27T11:59:14.894Z,3.30
2023-02-27T12:01:53.734Z,2.85
2023-02-27T12:04:34.189Z,2.97
2023-02-27T12:07:12.448Z,2.97
2023-02-27T12:10:10.904Z,3.03
2023-02-27T12:12:52.017Z,2.97
2023-02-27T12:15:44.662Z,2.77
2023-02-27T12:18:11.130Z,2.47
2023-02-27T12:20:52.898Z,2.20
2023-02-27T12:23:26.562Z,2.38
2023-02-27T12:26:01.471Z,2.78
2023-02-27T12:28:37.320Z,2.88
2023-02-27T12:31:29.086Z,2.80
2023-02-27T12:34:29.508Z,2.75
2023-02-27T12:37:03.814Z,2.58
2023-02-27T12:39:32.105Z,3.05
2023-02-27T12:42:25.181Z,2.20
2023-02-27T12:45:06.857Z,2.10
2023-02-27T12:47:37.233Z,1.73
2023-02-27T12:50:16.901Z,1.90
2023-02-27T12:52:50.907Z,1.67
2023-02-27T12:55:26.707Z,3.38
2023-02-27T12:58:25.024Z,2.78
2023-02-27T13:01:09.385Z,1.98
2023-02-27T13:03:42.499Z,2.75
2023-02-27T13:06:37.357Z,3.75
2023-02-27T13:09:15.878Z,3.00
2023-02-27T13:11:54.023Z,3.20
2023-02-27T13:14:29.694Z,2.92
2023-02-27T13:17:07.601Z,2.58
2023-02-27T13:19:42.725Z,2.65
2023-02-27T13:22:18.950Z,2.58
2023-02-27T13:24:51.617Z,2.45
2023-02-27T13:27:36.531Z,2.65
2023-02-27T13:30:02.930Z,3.47
2023-02-27T13:32:47.356Z,2.90
2023-02-27T13:35:29.970Z,2.63
2023-02-27T13:38:05.276Z,3.03
2023-02-27T13:40:36.471Z,3.17
2023-02-27T13:43:24.648Z,3.45
2023-02-27T13:46:23.182Z,2.72
2023-02-27T13:48:54.639Z,3.58
2023-02-27T13:51:36.478Z,2.90
2023-02-27T13:54:25.019Z,2.83
2023-02-27T13:57:03.291Z,3.35
2023-02-27T13:59:54.618Z,2.80
2023-02-27T14:02:56.766Z,3.08
2023-02-27T14:05:30.228Z,2.83
2023-02-27T14:08:04.095Z,3.20
2023-02-27T14:10:31.954Z,3.08
2023-02-27T14:12:59.567Z,3.20
2023-02-27T14:15:26.451Z,3.10
2023-02-27T14:18:13.933Z,3.22
2023-02-27T14:20:44.398Z,3.30
2023-02-27T14:23:16.937Z,3.15
2023-02-27T14:25:49.570Z,2.95
2023-02-27T14:28:37.964Z,3.17
2023-02-27T14:31:08.767Z,2.95
2023-02-27T14:33:48.475Z,2.90
2023-02-27T14:36:24.600Z,2.63
2023-02-27T14:38:55.277Z,3.08
2023-02-27T14:41:31.002Z,3.38
2023-02-27T14:43:58.697Z,3.13
2023-02-27T14:46:29.464Z,3.10
2023-02-27T14:48:59.323Z,3.22
2023-02-27T14:51:26.846Z,2.83
2023-02-27T14:54:04.487Z,2.85
2023-02-27T14:56:31.744Z,3.08
2023-02-27T14:59:04.232Z,2.90
2023-02-27T15:01:35.778Z,3.00
2023-02-27T15:04:04.657Z,3.58
2023-02-27T15:06:40.935Z,3.28
2023-02-27T15:09:08.488Z,3.70
2023-02-27T15:11:41.187Z,2.90
2023-02-27T15:14:08.800Z,3.17
2023-02-27T15:16:38.132Z,3.25
2023-02-27T15:19:39.986Z,3.17
2023-02-27T15:22:21.360Z,3.30
2023-02-27T15:24:52.673Z,3.10
2023-02-27T15:27:22.658Z,3.20
2023-02-27T15:29:59.862Z,2.83
2023-02-27T15:32:42.623Z,2.80
2023-02-27T15:35:26.894Z,3.38
2023-02-27T15:37:59.409Z,3.47
2023-02-27T15:40:32.651Z,3.17
2023-02-27T15:43:00.577Z,3.53
2023-02-27T15:45:31.351Z,3.63
2023-02-27T15:47:57.992Z,3.70
2023-02-27T15:50:28.632Z,4.38
2023-02-27T15:53:03.079Z,4.47
2023-02-27T15:55:34.044Z,4.45
2023-02-27T15:58:03.571Z,4.77
2023-02-27T16:00:31.878Z,4.20
2023-02-27T16:03:02.024Z,3.75
2023-02-27T16:05:36.108Z,3.20
2023-02-27T16:08:05.374Z,3.10
2023-02-27T16:10:40.487Z,3.00
2023-02-27T16:13:25.304Z,2.60
2023-02-27T16:16:21.047Z,2.95
2023-02-27T16:18:51.924Z,2.95
2023-02-27T16:21:20.585Z,3.00
2023-02-27T16:23:47.456Z,3.03
2023-02-27T16:26:31.285Z,3.05
2023-02-27T16:29:15.831Z,3.10
2023-02-27T16:31:54.570Z,2.80
2023-02-27T16:34:44.549Z,3.75
2023-02-27T16:37:33.973Z,3.63
2023-02-27T16:40:00.548Z,3.70
2023-02-27T16:42:27.364Z,4.20
2023-02-27T16:44:53.825Z,3.97
2023-02-27T16:47:20.325Z,3.72
2023-02-27T16:49:47.486Z,3.13
2023-02-27T16:52:13.970Z,2.92
2023-02-27T16:54:43.531Z,2.50
2023-02-27T16:57:10.840Z,3.05
2023-02-27T16:59:40.436Z,3.25
2023-02-27T17:02:13.120Z,3.03
2023-02-27T17:04:39.854Z,3.38
2023-02-27T17:07:06.939Z,3.13
2023-02-27T17:09:33.548Z,3.08
2023-02-27T17:12:00.028Z,2.72
2023-02-27T17:14:29.231Z,3.10
2023-02-27T17:16:55.756Z,3.40
2023-02-27T17:19:22.522Z,3.50
2023-02-27T17:21:49.183Z,2.88
2023-02-27T17:24:18.456Z,3.30
2023-02-27T17:26:44.913Z,3.28
2023-02-27T17:29:12.149Z,3.17
2023-02-27T17:31:38.630Z,3.30
2023-02-27T17:34:05.726Z,3.00
2023-02-27T17:36:35.380Z,3.65
2023-02-27T17:39:02.129Z,2.92
2023-02-27T17:41:30.185Z,3.20
2023-02-27T17:43:58.494Z,3.55
2023-02-27T17:46:27.143Z,3.50
2023-02-27T17:48:56.120Z,3.25
2023-02-27T17:51:23.036Z,3.15
2023-02-27T17:53:49.584Z,2.70
2023-02-27T17:56:16.056Z,3.17
2023-02-27T17:58:45.434Z,2.95
2023-02-27T18:01:16.918Z,2.90
2023-02-27T18:03:46.109Z,2.40
2023-02-27T18:06:13.081Z,2.72
2023-02-27T18:08:39.598Z,3.00
2023-02-27T18:11:13.863Z,2.90
2023-02-27T18:13:41.395Z,2.67
2023-02-27T18:16:08.459Z,2.60
2023-02-27T18:18:40.422Z,2.30
2023-02-27T18:21:12.759Z,2.90
2023-02-27T18:23:39.545Z,2.28
2023-02-27T18:26:07.157Z,2.58
2023-02-27T18:28:35.010Z,2.35
2023-02-27T18:31:01.563Z,2.10
2023-02-27T18:33:28.102Z,2.45
2023-02-27T18:35:54.669Z,2.13
2023-02-27T18:38:21.209Z,2.40
2023-02-27T18:40:47.743Z,2.47
2023-02-27T18:43:14.236Z,2.38
2023-02-27T18:45:41.225Z,2.50
2023-02-27T18:48:09.937Z,2.47
2023-02-27T18:50:36.456Z,2.13
2023-02-27T18:53:03.210Z,2.05
2023-02-27T18:55:29.644Z,2.70
2023-02-27T18:57:56.206Z,2.40
2023-02-27T19:00:24.150Z,2.53
2023-02-27T19:02:51.051Z,2.42
2023-02-27T19:05:18.053Z,2.40
2023-02-27T19:07:44.594Z,3.63
2023-02-27T19:10:11.721Z,2.50
2023-02-27T19:12:38.346Z,2.70
2023-02-27T19:15:05.369Z,2.63
2023-02-27T19:17:32.451Z,2.65
2023-02-27T19:19:59.623Z,2.50
2023-02-27T19:22:30.387Z,2.83
2023-02-27T19:24:57.310Z,2.85
2023-02-27T19:27:23.934Z,3.35
2023-02-27T19:29:50.983Z,3.25
2023-02-27T19:32:17.693Z,3.22
2023-02-27T19:34:44.342Z,3.38
2023-02-27T19:37:10.817Z,3.17
2023-02-27T19:39:37.315Z,2.95
2023-02-27T19:42:03.874Z,2.80
2023-02-27T19:44:30.357Z,2.90
2023-02-27T19:46:56.867Z,2.95
2023-02-27T19:49:23.559Z,2.80
2023-02-27T19:51:50.112Z,4.10
2023-02-27T19:54:16.682Z,3.25
2023-02-27T19:56:43.481Z,3.25
2023-02-27T19:59:12.310Z,3.60
2023-02-27T20:01:39.489Z,3.38
2023-02-27T20:04:07.820Z,3.35
2023-02-27T20:06:43.904Z,3.30
2023-02-27T20:09:15.927Z,3.67
2023-02-27T20:11:43.935Z,3.47
2023-02-27T20:14:11.403Z,3.00
2023-02-27T20:16:38.215Z,3.70
2023-02-27T20:19:06.339Z,3.20
2023-02-27T20:21:34.160Z,3.40
2023-02-27T20:24:04.613Z,2.97
2023-02-27T20:26:43.156Z,3.10
2023-02-27T20:29:19.346Z,3.42
2023-02-27T20:31:47.802Z,3.47
2023-02-27T20:34:21.871Z,3.72
2023-02-27T20:36:53.812Z,3.45
2023-02-27T20:41:47.760Z,3.78
2023-02-27T20:44:17.085Z,3.22
2023-02-27T20:46:48.144Z,3.50
2023-02-27T20:49:16.585Z,3.58
2023-02-27T20:51:43.402Z,3.17
2023-02-27T20:54:14.156Z,3.47
2023-02-27T20:56:42.039Z,3.78
2023-02-27T20:59:16.453Z,3.35
2023-02-27T21:01:51.182Z,3.17
2023-02-27T21:04:46.193Z,3.05
2023-02-27T21:07:14.724Z,3.22
2023-02-27T21:09:41.467Z,3.65
2023-02-27T21:12:09.163Z,2.85
2023-02-27T21:14:35.874Z,2.90
2023-02-27T21:17:02.430Z,2.70
2023-02-27T21:19:30.725Z,2.80
2023-02-27T21:21:59.768Z,2.92
2023-02-27T21:24:26.325Z,2.80
2023-02-27T21:26:52.853Z,2.67
2023-02-27T21:29:21.506Z,2.50
2023-02-27T21:31:49.653Z,2.42
2023-02-27T21:34:22.704Z,2.53
2023-02-27T21:36:50.152Z,2.50
2023-02-27T21:39:19.871Z,2.28
2023-02-27T21:41:49.738Z,2.50
2023-02-27T21:44:19.486Z,2.67
2023-02-27T21:46:46.261Z,2.92
2023-02-27T21:49:22.532Z,2.55
2023-02-27T21:51:49.381Z,2.60
2023-02-27T21:54:17.342Z,2.58
2023-02-27T21:56:45.597Z,2.55
2023-02-27T21:59:13.055Z,2.53
2023-02-27T22:01:39.706Z,2.80
2023-02-27T22:04:07.304Z,2.70
2023-02-27T22:06:37.142Z,2.33
2023-02-27T22:09:05.572Z,2.83
2023-02-27T22:11:34.154Z,2.95
2023-02-27T22:14:01.034Z,2.90
2023-02-27T22:16:27.820Z,2.83
2023-02-27T22:18:54.311Z,2.70
2023-02-27T22:21:24.096Z,2.80
2023-02-27T22:23:50.926Z,3.05
2023-02-27T22:26:24.166Z,3.25
2023-02-27T22:28:52.336Z,2.80
2023-02-27T22:31:21.689Z,3.33
2023-02-27T22:33:50.435Z,3.17
2023-02-27T22:36:22.467Z,3.85
2023-02-27T22:38:49.161Z,3.67
2023-02-27T22:41:21.425Z,3.70
2023-02-27T22:43:48.090Z,4.05
2023-02-27T22:46:17.816Z,3.72
2023-02-27T22:48:44.653Z,3.72
2023-02-27T22:51:14.338Z,4.00
2023-02-27T22:53:46.164Z,4.00
2023-02-27T22:56:15.489Z,4.03
2023-02-27T22:58:43.741Z,3.72
2023-02-27T23:01:26.205Z,4.47
2023-02-27T23:03:55.783Z,3.72
2023-02-27T23:06:25.457Z,3.97
2023-02-27T23:08:55.341Z,4.20
2023-02-27T23:11:21.959Z,4.47
2023-02-27T23:13:48.750Z,4.30
2023-02-27T23:16:15.435Z,5.00
2023-02-27T23:18:54.322Z,4.30
2023-02-27T23:21:27.298Z,4.93
2023-02-27T23:23:59.837Z,5.80
2023-02-27T23:26:29.220Z,6.20
2023-02-27T23:28:56.570Z,6.10
2023-02-27T23:31:23.229Z,7.03
2023-02-27T23:33:50.201Z,5.82
2023-02-27T23:36:17.714Z,5.85
2023-02-27T23:38:46.523Z,5.22
2023-02-27T23:41:16.790Z,5.53
2023-02-27T23:43:47.552Z,5.70
2023-02-27T23:46:16.018Z,5.57
2023-02-27T23:48:43.389Z,5.07
2023-02-27T23:51:11.137Z,5.03
2023-02-27T23:53:39.261Z,5.00
2023-02-27T23:56:27.014Z,5.18
2023-02-27T23:58:58.871Z,4.75
